createdAt,value
2022-08-12T00:00:18.869Z,74.61
2022-08-12T00:01:09.044Z,75.39
2022-08-12T00:02:03.435Z,76.61
2022-08-12T00:02:55.737Z,76.25
2022-08-12T00:03:46.252Z,75.29
2022-08-12T00:04:36.357Z,75.14
2022-08-12T00:05:27.447Z,75.15
2022-08-12T00:06:18.110Z,75.16
2022-08-12T00:07:09.272Z,75.11
2022-08-12T00:07:59.784Z,75.44
2022-08-12T00:08:54.460Z,74.09
2022-08-12T00:09:44.725Z,73.68
2022-08-12T00:10:39.724Z,74.44
2022-08-12T00:11:30.354Z,74.52
2022-08-12T00:12:21.108Z,74.70
2022-08-12T00:13:15.293Z,74.63
2022-08-12T00:14:05.205Z,74.33
2022-08-12T00:14:56.044Z,74.62
2022-08-12T00:15:47.411Z,74.64
2022-08-12T00:16:37.928Z,74.64
2022-08-12T00:17:28.004Z,74.77
2022-08-12T00:18:18.325Z,75.09
2022-08-12T00:19:08.530Z,74.74
2022-08-12T00:19:59.220Z,74.79
2022-08-12T00:20:49.351Z,75.01
2022-08-12T00:21:40.080Z,75.13
2022-08-12T00:22:30.341Z,74.78
2022-08-12T00:23:21.141Z,74.90
2022-08-12T00:24:11.225Z,74.69
2022-08-12T00:25:03.193Z,74.67
2022-08-12T00:26:20.560Z,74.84
2022-08-12T00:27:09.361Z,75.13
2022-08-12T00:28:00.353Z,75.38
2022-08-12T00:28:50.850Z,75.32
2022-08-12T00:29:45.873Z,75.52
2022-08-12T00:30:38.048Z,76.42
2022-08-12T00:31:29.911Z,76.43
2022-08-12T00:32:35.463Z,76.09
2022-08-12T00:33:26.964Z,76.42
2022-08-12T00:34:25.956Z,76.63
2022-08-12T00:35:16.599Z,76.30
2022-08-12T00:36:14.914Z,76.79
2022-08-12T00:37:21.306Z,77.37
2022-08-12T00:38:11.499Z,77.86
2022-08-12T00:39:01.873Z,77.59
2022-08-12T00:39:51.986Z,77.71
2022-08-12T00:40:42.280Z,77.60
2022-08-12T00:41:33.888Z,77.94
2022-08-12T00:42:11.725Z,77.63
2022-08-12T00:42:43.509Z,77.68
2022-08-12T00:43:16.680Z,77.62
2022-08-12T00:43:48.917Z,77.91
2022-08-12T00:44:22.426Z,77.77
2022-08-12T00:44:54.902Z,77.55
2022-08-12T00:45:27.032Z,77.84
2022-08-12T00:46:17.024Z,78.22
2022-08-12T00:46:53.948Z,77.18
2022-08-12T00:47:26.099Z,77.13
2022-08-12T00:47:57.773Z,77.16
2022-08-12T00:48:29.583Z,77.57
2022-08-12T00:49:02.287Z,77.98
2022-08-12T00:49:34.175Z,77.89
2022-08-12T00:50:06.930Z,77.83
2022-08-12T00:50:39.122Z,77.92
2022-08-12T00:51:10.941Z,77.79
2022-08-12T00:52:02.096Z,78.16
2022-08-12T00:52:35.575Z,78.11
2022-08-12T00:53:07.781Z,78.25
2022-08-12T00:53:39.705Z,78.79
2022-08-12T00:54:11.481Z,78.84
2022-08-12T00:54:46.952Z,78.77
2022-08-12T00:55:19.467Z,78.67
2022-08-12T00:55:52.727Z,78.96
2022-08-12T00:56:27.963Z,78.83
2022-08-12T00:57:05.050Z,79.59
2022-08-12T00:57:37.121Z,79.54
2022-08-12T00:58:10.908Z,79.00
2022-08-12T00:58:50.840Z,78.69
2022-08-12T00:59:23.548Z,78.78
2022-08-12T01:00:02.880Z,79.21
2022-08-12T01:00:34.563Z,79.47
2022-08-12T01:01:08.236Z,79.75
2022-08-12T01:02:02.020Z,79.70
2022-08-12T01:02:39.549Z,78.86
2022-08-12T01:03:14.954Z,78.23
2022-08-12T01:04:06.910Z,78.58
2022-08-12T01:04:58.034Z,78.68
2022-08-12T01:05:49.505Z,79.30
2022-08-12T01:06:40.681Z,79.54
2022-08-12T01:07:31.971Z,79.27
2022-08-12T01:08:23.225Z,79.06
2022-08-12T01:09:13.144Z,79.49
2022-08-12T01:10:05.518Z,80.37
2022-08-12T01:11:00.503Z,80.80
2022-08-12T01:11:32.920Z,79.73
2022-08-12T01:12:05.802Z,79.52
2022-08-12T01:12:38.462Z,78.96
2022-08-12T01:13:20.058Z,79.85
2022-08-12T01:13:52.756Z,80.29
2022-08-12T01:14:25.150Z,80.12
2022-08-12T01:14:57.701Z,80.15
2022-08-12T01:15:29.458Z,79.93
2022-08-12T01:16:03.846Z,79.24
2022-08-12T01:16:35.636Z,79.54
2022-08-12T01:17:07.704Z,79.68
2022-08-12T01:17:44.973Z,80.65
2022-08-12T01:18:18.900Z,79.95
2022-08-12T01:18:52.282Z,80.40
2022-08-12T01:19:24.854Z,79.55
2022-08-12T01:19:57.192Z,79.29
2022-08-12T01:20:38.049Z,79.62
2022-08-12T01:21:12.247Z,80.03
2022-08-12T01:22:02.696Z,80.49
2022-08-12T01:22:42.187Z,81.41
2022-08-12T01:23:36.156Z,80.71
2022-08-12T01:24:45.938Z,80.74
2022-08-12T01:25:18.768Z,80.95
2022-08-12T01:25:56.287Z,81.19
2022-08-12T01:26:28.734Z,81.22
2022-08-12T01:27:03.311Z,80.23
2022-08-12T01:27:40.522Z,80.24
2022-08-12T01:28:13.710Z,79.86
2022-08-12T01:28:47.667Z,80.26
2022-08-12T01:29:33.193Z,80.46
2022-08-12T01:30:07.816Z,80.66
2022-08-12T01:30:41.816Z,81.01
2022-08-12T01:31:18.511Z,80.50
2022-08-12T01:31:50.358Z,80.50
2022-08-12T01:32:23.721Z,80.49
2022-08-12T01:32:56.149Z,80.33
2022-08-12T01:33:33.971Z,80.80
2022-08-12T01:34:35.923Z,81.28
2022-08-12T01:35:13.318Z,81.04
2022-08-12T01:35:57.892Z,80.97
2022-08-12T01:36:42.097Z,81.12
2022-08-12T01:37:14.244Z,81.36
2022-08-12T01:37:58.667Z,81.43
2022-08-12T01:38:33.500Z,81.25
2022-08-12T01:39:05.527Z,81.70
2022-08-12T01:40:35.436Z,82.20
2022-08-12T01:40:40.471Z,83.00
2022-08-12T01:41:16.663Z,83.37
2022-08-12T01:41:54.924Z,83.43
2022-08-12T01:42:28.394Z,84.00
2022-08-12T01:43:09.649Z,84.14
2022-08-12T01:43:42.376Z,84.55
2022-08-12T01:44:14.701Z,84.99
2022-08-12T01:44:56.177Z,85.17
2022-08-12T01:45:29.545Z,84.34
2022-08-12T01:46:29.587Z,83.90
2022-08-12T01:47:23.922Z,83.90
2022-08-12T01:48:05.262Z,84.43
2022-08-12T01:48:55.511Z,84.32
2022-08-12T01:50:08.124Z,83.22
2022-08-12T01:51:05.565Z,83.86
2022-08-12T01:52:15.159Z,83.85
2022-08-12T01:52:44.749Z,84.77
2022-08-12T01:53:18.792Z,85.53
2022-08-12T01:54:04.553Z,85.25
2022-08-12T01:54:43.789Z,85.05
2022-08-12T01:55:19.625Z,85.38
2022-08-12T01:55:51.951Z,84.64
2022-08-12T01:56:25.978Z,84.76
2022-08-12T01:57:07.896Z,85.41
2022-08-12T01:57:59.034Z,84.54
2022-08-12T01:59:12.245Z,85.45
2022-08-12T01:59:59.828Z,86.16
2022-08-12T02:00:55.026Z,85.92
2022-08-12T02:01:34.315Z,84.73
2022-08-12T02:02:09.758Z,84.38
2022-08-12T02:02:47.045Z,84.36
2022-08-12T02:03:50.536Z,85.10
2022-08-12T02:04:50.675Z,85.57
2022-08-12T02:05:56.709Z,84.71
2022-08-12T02:07:33.158Z,86.37
2022-08-12T02:08:52.771Z,86.88
2022-08-12T02:09:51.674Z,86.14
2022-08-12T02:10:52.065Z,85.43
2022-08-12T02:11:57.294Z,86.36
2022-08-12T02:12:49.280Z,86.34
2022-08-12T02:13:49.588Z,86.06
2022-08-12T02:14:36.276Z,86.52
2022-08-12T02:15:27.712Z,87.26
2022-08-12T02:16:04.217Z,86.97
2022-08-12T02:16:46.840Z,85.68
2022-08-12T02:17:55.313Z,85.85
2022-08-12T02:18:41.703Z,86.05
2022-08-12T02:19:50.467Z,87.00
2022-08-12T02:20:34.296Z,85.93
2022-08-12T02:21:50.748Z,86.81
2022-08-12T02:22:31.526Z,87.17
2022-08-12T02:23:04.224Z,87.19
2022-08-12T02:23:36.829Z,87.03
2022-08-12T02:24:12.230Z,86.99
2022-08-12T02:24:46.590Z,86.45
2022-08-12T02:25:37.418Z,85.75
2022-08-12T02:26:09.767Z,86.62
2022-08-12T02:26:43.661Z,86.68
2022-08-12T02:27:15.481Z,86.61
2022-08-12T02:27:52.441Z,87.23
2022-08-12T02:28:24.491Z,87.14
2022-08-12T02:28:56.922Z,87.20
2022-08-12T02:29:29.341Z,87.52
2022-08-12T02:30:00.971Z,87.44
2022-08-12T02:30:41.240Z,88.16
2022-08-12T02:31:15.076Z,87.29
2022-08-12T02:31:47.718Z,87.31
2022-08-12T02:32:20.473Z,87.17
2022-08-12T02:32:54.270Z,86.83
2022-08-12T02:33:28.685Z,87.09
2022-08-12T02:34:01.254Z,87.10
2022-08-12T02:34:33.893Z,86.97
2022-08-12T02:35:08.341Z,87.30
2022-08-12T02:35:40.103Z,87.14
2022-08-12T02:36:11.729Z,86.94
2022-08-12T02:36:44.586Z,87.28
2022-08-12T02:37:17.860Z,87.13
2022-08-12T02:37:52.448Z,86.88
2022-08-12T02:38:24.851Z,87.25
2022-08-12T02:38:57.535Z,86.67
2022-08-12T02:39:33.649Z,87.35
2022-08-12T02:40:07.247Z,87.79
2022-08-12T02:40:45.399Z,86.50
2022-08-12T02:41:19.772Z,86.91
2022-08-12T02:41:53.190Z,86.99
2022-08-12T02:42:25.657Z,87.25
2022-08-12T02:43:14.937Z,87.05
2022-08-12T02:43:51.386Z,87.88
2022-08-12T02:44:23.949Z,87.66
2022-08-12T02:44:55.739Z,87.44
2022-08-12T02:45:42.318Z,87.30
2022-08-12T02:46:16.516Z,88.03
2022-08-12T02:46:49.671Z,88.83
2022-08-12T02:47:59.805Z,89.20
2022-08-12T02:48:25.666Z,88.36
2022-08-12T02:49:11.803Z,88.96
2022-08-12T02:49:50.300Z,89.47
2022-08-12T02:50:22.932Z,89.26
2022-08-12T02:50:57.250Z,89.00
2022-08-12T02:51:42.116Z,88.83
2022-08-12T02:52:14.639Z,89.25
2022-08-12T02:52:46.644Z,88.44
2022-08-12T02:53:19.033Z,89.00
2022-08-12T02:54:05.523Z,89.11
2022-08-12T02:54:38.574Z,89.01
2022-08-12T02:55:34.083Z,88.87
2022-08-12T02:56:07.193Z,88.05
2022-08-12T02:56:41.933Z,88.53
2022-08-12T02:57:22.483Z,88.13
2022-08-12T02:57:55.283Z,87.93
2022-08-12T02:58:30.678Z,88.35
2022-08-12T02:59:05.411Z,88.00
2022-08-12T02:59:37.140Z,88.64
2022-08-12T03:00:09.406Z,88.23
2022-08-12T03:00:41.573Z,88.85
2022-08-12T03:01:13.914Z,88.70
2022-08-12T03:02:03.547Z,88.77
2022-08-12T03:02:36.158Z,89.04
2022-08-12T03:03:10.114Z,88.92
2022-08-12T03:03:41.744Z,88.04
2022-08-12T03:04:20.818Z,88.64
2022-08-12T03:04:57.538Z,88.47
2022-08-12T03:05:29.992Z,88.58
2022-08-12T03:06:21.467Z,88.39
2022-08-12T03:07:38.112Z,88.62
2022-08-12T03:08:32.756Z,88.73
2022-08-12T03:09:06.135Z,89.45
2022-08-12T03:10:16.193Z,89.55
2022-08-12T03:10:51.130Z,88.88
2022-08-12T03:11:32.682Z,90.57
2022-08-12T03:12:09.693Z,91.04
2022-08-12T03:12:49.363Z,91.20
2022-08-12T03:13:26.205Z,90.73
2022-08-12T03:14:00.811Z,90.13
2022-08-12T03:14:34.447Z,89.68
2022-08-12T03:15:10.080Z,89.24
2022-08-12T03:15:41.867Z,89.19
2022-08-12T03:16:14.801Z,89.22
2022-08-12T03:16:55.625Z,90.00
2022-08-12T03:18:24.113Z,90.71
2022-08-12T03:18:45.702Z,89.86
2022-08-12T03:19:21.075Z,88.92
2022-08-12T03:20:10.127Z,89.39
2022-08-12T03:20:42.686Z,89.91
2022-08-12T03:21:17.445Z,90.89
2022-08-12T03:22:14.042Z,91.22
2022-08-12T03:22:46.013Z,91.00
2022-08-12T03:23:29.161Z,91.03
2022-08-12T03:24:03.294Z,91.18
2022-08-12T03:24:35.547Z,91.50
2022-08-12T03:25:25.032Z,90.86
2022-08-12T03:26:01.682Z,90.11
2022-08-12T03:26:35.378Z,90.23
2022-08-12T03:27:09.263Z,91.09
2022-08-12T03:27:49.668Z,91.21
2022-08-12T03:28:40.801Z,91.16
2022-08-12T03:29:12.806Z,92.02
2022-08-12T03:29:50.410Z,91.84
2022-08-12T03:30:29.248Z,91.98
2022-08-12T03:31:04.502Z,91.68
2022-08-12T03:31:36.221Z,91.48
2022-08-12T03:32:08.589Z,91.29
2022-08-12T03:33:02.291Z,92.05
2022-08-12T03:33:37.302Z,92.62
2022-08-12T03:34:14.421Z,92.58
2022-08-12T03:34:49.338Z,91.50
2022-08-12T03:35:41.061Z,92.59
2022-08-12T03:36:18.228Z,93.32
2022-08-12T03:36:50.396Z,93.68
2022-08-12T03:37:30.321Z,92.69
2022-08-12T03:38:11.699Z,93.91
2022-08-12T03:38:50.736Z,93.15
2022-08-12T03:39:35.985Z,93.53
2022-08-12T03:40:29.209Z,93.71
2022-08-12T03:41:23.726Z,93.54
2022-08-12T03:42:29.939Z,93.03
2022-08-12T03:43:23.088Z,93.36
2022-08-12T03:44:22.430Z,93.56
2022-08-12T03:45:32.904Z,94.12
2022-08-12T03:46:27.913Z,93.02
2022-08-12T03:47:35.179Z,92.92
2022-08-12T03:48:29.099Z,93.41
2022-08-12T03:49:19.652Z,92.79
2022-08-12T03:50:11.140Z,93.61
2022-08-12T03:51:01.710Z,92.33
2022-08-12T03:51:51.953Z,93.20
2022-08-12T03:52:43.916Z,93.50
2022-08-12T03:53:36.045Z,95.13
2022-08-12T03:54:26.651Z,95.36
2022-08-12T03:55:16.790Z,93.90
2022-08-12T03:56:07.304Z,94.36
2022-08-12T03:56:57.752Z,95.76
2022-08-12T03:57:48.594Z,94.82
2022-08-12T03:58:40.435Z,94.83
2022-08-12T03:59:30.689Z,94.82
2022-08-12T04:00:24.013Z,95.23
2022-08-12T04:00:56.162Z,95.70
2022-08-12T04:01:27.856Z,95.70
2022-08-12T04:01:59.644Z,96.69
2022-08-12T04:02:31.383Z,96.21
2022-08-12T04:03:23.438Z,96.83
2022-08-12T04:03:55.316Z,97.32
2022-08-12T04:04:35.068Z,97.92
2022-08-12T04:05:11.928Z,97.70
2022-08-12T04:05:55.470Z,97.94
2022-08-12T04:06:35.543Z,97.79
2022-08-12T04:07:09.804Z,96.82
2022-08-12T04:07:57.932Z,98.10
2022-08-12T04:08:30.803Z,97.68
2022-08-12T04:09:14.643Z,97.39
2022-08-12T04:09:48.552Z,96.78
2022-08-12T04:10:20.367Z,97.64
2022-08-12T04:11:12.629Z,97.95
2022-08-12T04:12:03.598Z,99.08
2022-08-12T04:13:01.595Z,98.90
2022-08-12T04:13:33.355Z,98.25
2022-08-12T04:14:19.821Z,98.54
2022-08-12T04:14:52.474Z,99.23
2022-08-12T04:15:28.883Z,98.41
2022-08-12T04:16:02.379Z,97.35
2022-08-12T04:16:35.372Z,97.50
2022-08-12T04:17:08.376Z,98.10
2022-08-12T04:18:07.591Z,98.50
2022-08-12T04:18:33.584Z,97.50
2022-08-12T04:19:06.652Z,96.89
2022-08-12T04:19:38.509Z,97.52
2022-08-12T04:20:13.365Z,96.49
2022-08-12T04:20:47.677Z,97.35
2022-08-12T04:21:19.400Z,97.55
2022-08-12T04:22:01.314Z,98.35
2022-08-12T04:22:35.129Z,98.08
2022-08-12T04:23:08.424Z,98.22
2022-08-12T04:23:47.656Z,98.68
2022-08-12T04:24:21.010Z,98.48
2022-08-12T04:24:53.890Z,99.19
2022-08-12T04:25:27.123Z,99.67
2022-08-12T04:25:58.657Z,100.00
2022-08-12T04:26:30.226Z,100.00
2022-08-12T04:27:03.244Z,100.00
2022-08-12T04:27:34.862Z,100.00
2022-08-12T04:28:13.015Z,100.00
2022-08-12T04:28:45.934Z,100.00
2022-08-12T04:29:20.642Z,100.00
2022-08-12T04:30:30.032Z,98.70
2022-08-12T04:31:05.098Z,98.36
2022-08-12T04:31:42.168Z,97.81
2022-08-12T04:32:15.727Z,97.72
2022-08-12T04:32:49.957Z,96.79
2022-08-12T04:33:21.793Z,97.50
2022-08-12T04:33:53.336Z,96.86
2022-08-12T04:34:25.904Z,97.36
2022-08-12T04:34:59.053Z,97.44
2022-08-12T04:35:31.425Z,98.05
2022-08-12T04:36:03.154Z,97.70
2022-08-12T04:36:37.319Z,98.78
2022-08-12T04:37:08.844Z,98.80
2022-08-12T04:37:58.094Z,99.24
2022-08-12T04:38:32.012Z,99.96
2022-08-12T04:39:05.844Z,99.89
2022-08-12T04:39:39.303Z,99.61
2022-08-12T04:40:13.208Z,99.93
2022-08-12T04:40:46.199Z,100.00
2022-08-12T04:41:19.123Z,100.00
2022-08-12T04:41:58.451Z,100.00
2022-08-12T04:42:32.883Z,99.17
2022-08-12T04:43:04.583Z,99.44
2022-08-12T04:43:59.944Z,99.28
2022-08-12T04:44:28.093Z,98.75
2022-08-12T04:44:59.783Z,98.54
2022-08-12T04:45:32.931Z,97.81
2022-08-12T04:46:04.547Z,97.77
2022-08-12T04:46:36.997Z,97.24
2022-08-12T04:47:12.140Z,96.58
2022-08-12T04:47:43.959Z,96.40
2022-08-12T04:48:17.166Z,94.45
2022-08-12T04:48:49.575Z,93.67
2022-08-12T04:49:22.149Z,93.25
2022-08-12T04:49:53.764Z,93.04
2022-08-12T04:50:27.205Z,92.50
2022-08-12T04:51:08.710Z,93.87
2022-08-12T04:51:40.688Z,93.61
2022-08-12T04:52:12.588Z,94.06
2022-08-12T04:52:45.155Z,94.32
2022-08-12T04:53:16.874Z,94.11
2022-08-12T04:53:49.029Z,94.44
2022-08-12T04:54:21.077Z,94.73
2022-08-12T04:54:55.472Z,95.49
2022-08-12T04:55:28.372Z,95.19
2022-08-12T04:56:00.404Z,94.41
2022-08-12T04:56:35.534Z,94.41
2022-08-12T04:57:09.530Z,94.34
2022-08-12T04:57:41.592Z,94.16
2022-08-12T04:58:15.005Z,93.65
2022-08-12T04:58:52.032Z,93.50
2022-08-12T04:59:24.202Z,93.43
2022-08-12T04:59:55.720Z,92.89
2022-08-12T05:00:27.724Z,92.94
2022-08-12T05:00:59.473Z,92.31
2022-08-12T05:01:31.559Z,92.73
2022-08-12T05:02:03.386Z,92.66
2022-08-12T05:02:41.587Z,92.32
2022-08-12T05:03:14.085Z,92.95
2022-08-12T05:03:47.441Z,92.89
2022-08-12T05:04:20.385Z,92.93
2022-08-12T05:04:56.203Z,93.69
2022-08-12T05:05:36.074Z,94.12
2022-08-12T05:06:08.625Z,94.77
2022-08-12T05:06:48.942Z,94.34
2022-08-12T05:07:20.948Z,94.64
2022-08-12T05:07:54.122Z,94.66
2022-08-12T05:08:26.800Z,94.15
2022-08-12T05:09:00.658Z,94.48
2022-08-12T05:09:55.355Z,94.73
2022-08-12T05:10:33.776Z,94.36
2022-08-12T05:11:07.586Z,95.29
2022-08-12T05:11:39.196Z,94.45
2022-08-12T05:12:26.709Z,95.01
2022-08-12T05:13:00.776Z,95.01
2022-08-12T05:13:37.640Z,95.16
2022-08-12T05:14:09.275Z,94.60
2022-08-12T05:14:40.838Z,94.19
2022-08-12T05:15:28.012Z,94.73
2022-08-12T05:16:05.682Z,93.37
2022-08-12T05:16:40.896Z,91.28
2022-08-12T05:17:17.565Z,90.83
2022-08-12T05:17:51.915Z,91.09
2022-08-12T05:18:23.991Z,89.27
2022-08-12T05:18:55.655Z,88.29
2022-08-12T05:19:29.460Z,87.38
2022-08-12T05:20:02.321Z,86.68
2022-08-12T05:20:34.390Z,86.13
2022-08-12T05:21:07.661Z,86.37
2022-08-12T05:21:41.092Z,86.00
2022-08-12T05:22:13.590Z,85.65
2022-08-12T05:22:45.777Z,86.04
2022-08-12T05:23:19.385Z,86.53
2022-08-12T05:23:51.372Z,86.94
2022-08-12T05:24:22.932Z,87.14
2022-08-12T05:24:54.718Z,87.31
2022-08-12T05:25:26.463Z,86.53
2022-08-12T05:25:59.228Z,86.50
2022-08-12T05:26:30.785Z,86.83
2022-08-12T05:27:02.625Z,87.49
2022-08-12T05:27:34.736Z,86.89
2022-08-12T05:28:06.724Z,86.62
2022-08-12T05:28:38.526Z,87.06
2022-08-12T05:30:05.554Z,87.00
2022-08-12T05:30:06.575Z,86.94
2022-08-12T05:30:43.034Z,87.16
2022-08-12T05:31:14.841Z,86.62
2022-08-12T05:32:08.001Z,85.16
2022-08-12T05:32:39.734Z,84.03
2022-08-12T05:33:12.718Z,83.45
2022-08-12T05:33:45.746Z,82.38
2022-08-12T05:34:17.276Z,81.13
2022-08-12T05:34:49.426Z,80.63
2022-08-12T05:35:22.690Z,79.88
2022-08-12T05:35:55.641Z,79.73
2022-08-12T05:36:27.182Z,79.09
2022-08-12T05:36:59.532Z,78.44
2022-08-12T05:37:31.053Z,78.40
2022-08-12T05:38:22.668Z,78.65
2022-08-12T05:38:57.221Z,78.30
2022-08-12T05:39:28.796Z,78.09
2022-08-12T05:40:00.955Z,79.07
2022-08-12T05:40:33.174Z,79.44
2022-08-12T05:41:06.272Z,78.57
2022-08-12T05:41:37.988Z,77.40
2022-08-12T05:42:09.714Z,77.73
2022-08-12T05:42:41.359Z,75.44
2022-08-12T05:43:13.021Z,73.43
2022-08-12T05:44:06.157Z,69.44
2022-08-12T05:44:37.720Z,68.96
2022-08-12T05:45:09.914Z,68.73
2022-08-12T05:45:44.726Z,68.63
2022-08-12T05:46:16.586Z,67.75
2022-08-12T05:46:48.107Z,67.28
2022-08-12T05:47:19.712Z,67.05
2022-08-12T05:47:53.653Z,66.41
2022-08-12T05:48:25.717Z,66.12
2022-08-12T05:48:58.966Z,65.85
2022-08-12T05:49:30.620Z,66.34
2022-08-12T05:50:02.133Z,67.55
2022-08-12T05:50:35.615Z,67.98
2022-08-12T05:51:08.364Z,67.85
2022-08-12T05:51:41.721Z,67.98
2022-08-12T05:52:13.531Z,68.27
2022-08-12T05:52:45.509Z,68.50
2022-08-12T05:53:19.979Z,67.21
2022-08-12T05:53:53.025Z,65.84
2022-08-12T05:54:41.236Z,65.22
2022-08-12T05:55:16.983Z,64.39
2022-08-12T05:55:48.528Z,62.94
2022-08-12T05:56:24.099Z,60.15
2022-08-12T05:56:55.735Z,59.60
2022-08-12T05:57:27.322Z,57.73
2022-08-12T05:57:59.251Z,57.23
2022-08-12T05:58:31.062Z,56.17
2022-08-12T05:59:06.671Z,54.71
2022-08-12T05:59:41.840Z,55.45
2022-08-12T06:00:16.356Z,53.18
2022-08-12T06:00:48.031Z,52.79
2022-08-12T06:02:12.396Z,52.88
2022-08-12T06:02:13.600Z,50.00
2022-08-12T06:02:46.414Z,49.82
2022-08-12T06:03:19.727Z,49.25
2022-08-12T06:03:52.833Z,49.33
2022-08-12T06:04:24.416Z,48.33
2022-08-12T06:05:00.344Z,48.30
2022-08-12T06:05:54.473Z,47.72
2022-08-12T06:06:27.821Z,47.25
2022-08-12T06:07:01.727Z,46.07
2022-08-12T06:07:58.951Z,46.98
2022-08-12T06:08:26.208Z,46.40
2022-08-12T06:08:57.996Z,45.60
2022-08-12T06:09:30.909Z,46.19
2022-08-12T06:10:02.835Z,45.28
2022-08-12T06:10:35.751Z,44.79
2022-08-12T06:11:07.470Z,44.55
2022-08-12T06:11:41.522Z,44.16
2022-08-12T06:12:33.008Z,43.42
2022-08-12T06:13:06.819Z,43.63
2022-08-12T06:13:54.112Z,43.93
2022-08-12T06:14:26.430Z,44.07
2022-08-12T06:15:00.134Z,43.70
2022-08-12T06:15:33.271Z,43.95
2022-08-12T06:16:06.382Z,42.98
2022-08-12T06:16:37.932Z,42.51
2022-08-12T06:17:09.673Z,42.39
2022-08-12T06:17:41.217Z,42.44
2022-08-12T06:18:16.056Z,42.90
2022-08-12T06:18:48.650Z,41.87
2022-08-12T06:19:20.245Z,41.27
2022-08-12T06:20:26.112Z,41.43
2022-08-12T06:20:53.915Z,41.03
2022-08-12T06:21:25.490Z,41.32
2022-08-12T06:21:57.699Z,40.94
2022-08-12T06:22:29.269Z,39.97
2022-08-12T06:23:01.723Z,39.72
2022-08-12T06:23:33.371Z,39.27
2022-08-12T06:24:05.158Z,39.52
2022-08-12T06:24:36.741Z,40.33
2022-08-12T06:25:09.128Z,40.00
2022-08-12T06:25:49.108Z,39.63
2022-08-12T06:26:21.996Z,39.36
2022-08-12T06:26:53.877Z,39.03
2022-08-12T06:27:25.736Z,39.62
2022-08-12T06:28:06.959Z,38.33
2022-08-12T06:28:40.183Z,38.79
2022-08-12T06:30:08.820Z,37.13
2022-08-12T06:30:16.287Z,38.36
2022-08-12T06:31:24.304Z,38.25
2022-08-12T06:31:50.598Z,37.19
2022-08-12T06:32:22.211Z,37.30
2022-08-12T06:33:11.758Z,37.12
2022-08-12T06:33:55.267Z,36.99
2022-08-12T06:35:27.016Z,37.45
2022-08-12T06:35:47.916Z,37.56
2022-08-12T06:36:20.936Z,36.81
2022-08-12T06:36:54.272Z,36.91
2022-08-12T06:37:25.831Z,36.02
2022-08-12T06:37:57.778Z,36.28
2022-08-12T06:38:31.345Z,35.50
2022-08-12T06:39:02.969Z,36.02
2022-08-12T06:39:34.681Z,35.70
2022-08-12T06:40:10.623Z,35.70
2022-08-12T06:41:02.258Z,35.72
2022-08-12T06:42:30.964Z,35.46
2022-08-12T06:42:52.088Z,34.99
2022-08-12T06:43:23.616Z,35.02
2022-08-12T06:44:06.865Z,35.47
2022-08-12T06:44:39.461Z,35.35
2022-08-12T06:45:12.478Z,35.76
2022-08-12T06:45:47.282Z,36.81
2022-08-12T06:46:22.085Z,37.41
2022-08-12T06:46:53.765Z,35.24
2022-08-12T06:47:28.376Z,35.77
2022-08-12T06:48:07.742Z,34.81
2022-08-12T06:48:42.715Z,35.73
2022-08-12T06:49:14.684Z,35.86
2022-08-12T06:49:52.515Z,36.06
2022-08-12T06:50:24.153Z,36.10
2022-08-12T06:50:56.024Z,36.92
2022-08-12T06:51:32.447Z,37.13
2022-08-12T06:52:04.626Z,37.34
2022-08-12T06:52:36.312Z,35.63
2022-08-12T06:53:09.393Z,35.88
2022-08-12T06:53:43.528Z,37.45
2022-08-12T06:54:15.087Z,37.38
2022-08-12T06:55:03.304Z,35.73
2022-08-12T06:55:36.237Z,35.67
2022-08-12T06:56:12.323Z,34.99
2022-08-12T06:57:03.468Z,34.82
2022-08-12T06:58:06.178Z,35.56
2022-08-12T06:58:40.148Z,35.35
2022-08-12T06:59:14.386Z,35.21
2022-08-12T06:59:45.928Z,35.35
2022-08-12T07:00:31.255Z,35.78
2022-08-12T07:01:04.995Z,35.87
2022-08-12T07:01:36.695Z,36.55
2022-08-12T07:02:08.646Z,36.70
2022-08-12T07:02:40.377Z,36.21
2022-08-12T07:03:23.027Z,35.37
2022-08-12T07:03:55.349Z,35.34
2022-08-12T07:04:38.655Z,35.60
2022-08-12T07:05:10.684Z,35.11
2022-08-12T07:05:42.279Z,35.30
2022-08-12T07:06:14.569Z,35.74
2022-08-12T07:06:46.092Z,35.08
2022-08-12T07:07:18.447Z,34.98
2022-08-12T07:07:58.932Z,35.23
2022-08-12T07:08:36.741Z,35.19
2022-08-12T07:09:11.183Z,34.07
2022-08-12T07:10:05.321Z,36.25
2022-08-12T07:10:42.796Z,36.65
2022-08-12T07:11:15.609Z,35.51
2022-08-12T07:11:51.102Z,36.13
2022-08-12T07:12:22.708Z,35.44
2022-08-12T07:13:01.714Z,36.36
2022-08-12T07:14:11.493Z,35.89
2022-08-12T07:14:31.555Z,36.42
2022-08-12T07:15:03.955Z,35.99
2022-08-12T07:15:36.025Z,35.91
2022-08-12T07:16:07.945Z,36.47
2022-08-12T07:17:02.136Z,36.51
2022-08-12T07:17:37.460Z,36.76
2022-08-12T07:18:17.821Z,37.38
2022-08-12T07:18:53.617Z,37.29
2022-08-12T07:19:25.547Z,36.54
2022-08-12T07:20:51.167Z,35.36
2022-08-12T07:21:05.811Z,34.29
2022-08-12T07:22:01.676Z,34.46
2022-08-12T07:22:29.798Z,34.42
2022-08-12T07:23:04.022Z,33.83
2022-08-12T07:23:38.890Z,32.51
2022-08-12T07:24:10.508Z,32.52
2022-08-12T07:24:42.627Z,32.52
2022-08-12T07:25:40.750Z,32.94
2022-08-12T07:26:17.196Z,32.94
2022-08-12T07:26:48.800Z,33.90
2022-08-12T07:27:20.360Z,32.61
2022-08-12T07:27:55.310Z,32.81
2022-08-12T07:28:29.358Z,33.02
2022-08-12T07:29:01.043Z,32.78
2022-08-12T07:30:02.969Z,32.65
2022-08-12T07:30:24.557Z,31.92
2022-08-12T07:30:57.232Z,31.98
2022-08-12T07:31:30.983Z,32.12
2022-08-12T07:32:04.803Z,31.02
2022-08-12T07:32:36.734Z,31.40
2022-08-12T07:33:10.830Z,31.93
2022-08-12T07:33:42.539Z,31.90
2022-08-12T07:34:14.822Z,32.58
2022-08-12T07:34:47.334Z,32.33
2022-08-12T07:35:21.403Z,33.08
2022-08-12T07:35:54.416Z,33.83
2022-08-12T07:36:27.379Z,34.04
2022-08-12T07:37:00.302Z,33.44
2022-08-12T07:37:40.721Z,34.54
2022-08-12T07:38:31.384Z,34.32
2022-08-12T07:39:03.799Z,32.69
2022-08-12T07:39:35.446Z,32.67
2022-08-12T07:40:07.661Z,32.94
2022-08-12T07:40:39.257Z,33.58
2022-08-12T07:41:22.763Z,34.96
2022-08-12T07:41:54.477Z,33.88
2022-08-12T07:42:26.545Z,33.17
2022-08-12T07:42:58.467Z,32.52
2022-08-12T07:43:31.387Z,33.67
2022-08-12T07:44:05.571Z,32.89
2022-08-12T07:44:37.198Z,32.83
2022-08-12T07:45:09.499Z,33.11
2022-08-12T07:45:41.053Z,33.26
2022-08-12T07:46:15.270Z,32.10
2022-08-12T07:46:48.048Z,31.17
2022-08-12T07:47:19.609Z,31.78
2022-08-12T07:47:51.269Z,31.31
2022-08-12T07:48:24.232Z,32.05
2022-08-12T07:48:58.052Z,30.78
2022-08-12T07:49:29.755Z,31.05
2022-08-12T07:50:04.910Z,30.96
2022-08-12T07:50:38.210Z,31.38
2022-08-12T07:51:10.703Z,31.38
2022-08-12T07:51:43.834Z,31.02
2022-08-12T07:52:15.579Z,31.28
2022-08-12T07:52:48.172Z,31.49
2022-08-12T07:53:20.884Z,30.90
2022-08-12T07:54:00.149Z,31.27
2022-08-12T07:54:32.822Z,31.89
2022-08-12T07:55:05.211Z,32.35
2022-08-12T07:55:36.811Z,31.69
2022-08-12T07:56:10.042Z,31.59
2022-08-12T07:56:42.445Z,31.27
2022-08-12T07:57:15.365Z,31.35
2022-08-12T07:58:00.714Z,31.25
2022-08-12T07:58:33.160Z,32.01
2022-08-12T07:59:10.280Z,31.81
2022-08-12T07:59:41.816Z,31.15
2022-08-12T08:00:14.254Z,31.29
2022-08-12T08:00:45.809Z,31.04
2022-08-12T08:01:21.386Z,31.04
2022-08-12T08:01:53.918Z,31.17
2022-08-12T08:02:30.786Z,31.32
2022-08-12T08:03:03.653Z,32.10
2022-08-12T08:03:36.672Z,31.45
2022-08-12T08:04:37.598Z,31.59
2022-08-12T08:05:09.486Z,30.58
2022-08-12T08:05:46.194Z,31.39
2022-08-12T08:06:18.991Z,31.60
2022-08-12T08:06:52.152Z,30.59
2022-08-12T08:07:30.464Z,31.08
2022-08-12T08:08:15.983Z,30.46
2022-08-12T08:08:47.516Z,30.61
2022-08-12T08:09:22.137Z,30.00
2022-08-12T08:09:58.687Z,29.69
2022-08-12T08:10:31.316Z,29.53
2022-08-12T08:11:21.612Z,30.98
2022-08-12T08:12:18.476Z,30.95
2022-08-12T08:12:54.161Z,29.45
2022-08-12T08:13:25.718Z,29.96
2022-08-12T08:14:00.009Z,29.88
2022-08-12T08:14:31.796Z,29.78
2022-08-12T08:15:04.267Z,29.50
2022-08-12T08:16:27.402Z,29.60
2022-08-12T08:17:00.790Z,30.54
2022-08-12T08:17:32.394Z,31.68
2022-08-12T08:18:06.451Z,31.22
2022-08-12T08:18:38.991Z,30.52
2022-08-12T08:19:15.867Z,30.76
2022-08-12T08:20:02.069Z,30.53
2022-08-12T08:20:41.664Z,29.43
2022-08-12T08:21:15.445Z,29.71
2022-08-12T08:21:46.960Z,28.62